createdAt,value
2018-06-12T00:00:07.756Z,1.90
2018-06-12T00:02:36.066Z,2.20
2018-06-12T00:05:04.773Z,1.50
2018-06-12T00:07:33.086Z,1.97
2018-06-12T00:10:01.353Z,1.53
2018-06-12T00:12:29.672Z,3.27
2018-06-12T00:14:57.953Z,1.80
2018-06-12T00:17:26.333Z,1.90
2018-06-12T00:19:54.650Z,1.97
2018-06-12T00:22:22.925Z,2.60
2018-06-12T00:24:52.341Z,2.47
2018-06-12T00:27:20.632Z,2.10
2018-06-12T00:29:48.941Z,1.97
2018-06-12T00:32:17.221Z,2.50
2018-06-12T00:34:45.541Z,2.70
2018-06-12T00:37:13.847Z,1.70
2018-06-12T00:39:42.153Z,2.10
2018-06-12T00:42:11.538Z,2.00
2018-06-12T00:44:39.849Z,2.40
2018-06-12T00:47:08.275Z,2.33
2018-06-12T00:49:36.577Z,1.90
2018-06-12T00:52:04.865Z,2.10
2018-06-12T00:54:35.254Z,2.70
2018-06-12T00:57:07.843Z,2.13
2018-06-12T00:59:36.165Z,2.10
2018-06-12T01:02:04.945Z,1.93
2018-06-12T01:04:33.257Z,2.17
2018-06-12T01:07:01.561Z,2.47
2018-06-12T01:09:29.892Z,2.80
2018-06-12T01:11:58.210Z,2.00
2018-06-12T01:14:27.517Z,2.90
2018-06-12T01:16:55.825Z,2.60
2018-06-12T01:19:25.205Z,2.60
2018-06-12T01:21:53.905Z,2.30
2018-06-12T01:24:22.217Z,2.17
2018-06-12T01:26:50.535Z,2.50
2018-06-12T01:29:19.178Z,2.40
2018-06-12T01:31:47.498Z,2.10
2018-06-12T01:34:15.778Z,2.70
2018-06-12T01:36:44.105Z,2.27
2018-06-12T01:39:12.398Z,2.73
2018-06-12T01:41:40.688Z,2.27
2018-06-12T01:44:08.957Z,2.40
2018-06-12T01:46:37.259Z,2.17
2018-06-12T01:49:05.564Z,2.33
2018-06-12T01:51:33.862Z,2.03
2018-06-12T01:54:02.137Z,1.60
2018-06-12T01:56:30.437Z,2.30
2018-06-12T01:58:58.773Z,2.00
2018-06-12T02:01:27.153Z,2.03
2018-06-12T02:03:55.448Z,2.10
2018-06-12T02:06:23.788Z,1.70
2018-06-12T02:08:52.109Z,1.90
2018-06-12T02:11:20.439Z,2.37
2018-06-12T02:13:48.766Z,2.30
2018-06-12T02:16:17.117Z,1.70
2018-06-12T02:18:45.447Z,2.10
2018-06-12T02:21:13.793Z,1.70
2018-06-12T02:23:42.149Z,2.20
2018-06-12T02:26:10.457Z,1.87
2018-06-12T02:28:38.763Z,2.23
2018-06-12T02:31:07.107Z,1.93
2018-06-12T02:33:35.409Z,1.93
2018-06-12T02:36:03.689Z,3.23
2018-06-12T02:38:32.376Z,2.87
2018-06-12T02:41:00.659Z,2.50
2018-06-12T02:43:28.938Z,2.03
2018-06-12T02:45:57.245Z,2.37
2018-06-12T02:48:25.514Z,1.80
2018-06-12T02:50:53.832Z,2.43
2018-06-12T02:53:23.162Z,1.77
2018-06-12T02:55:51.465Z,1.90
2018-06-12T02:58:19.739Z,1.47
2018-06-12T03:00:48.053Z,2.60
2018-06-12T03:03:16.373Z,2.17
2018-06-12T03:05:44.689Z,1.60
2018-06-12T03:08:13.000Z,2.00
2018-06-12T03:10:41.309Z,1.87
2018-06-12T03:13:11.645Z,1.60
2018-06-12T03:15:39.991Z,1.70
2018-06-12T03:18:08.699Z,1.83
2018-06-12T03:20:46.537Z,3.30
2018-06-12T03:23:14.843Z,2.47
2018-06-12T03:25:43.216Z,2.10
2018-06-12T03:28:11.508Z,2.13
2018-06-12T03:30:39.854Z,2.10
2018-06-12T03:33:08.202Z,2.00
2018-06-12T03:35:36.489Z,2.83
2018-06-12T03:38:04.803Z,2.10
2018-06-12T03:40:33.109Z,1.60
2018-06-12T03:43:01.662Z,2.37
2018-06-12T03:45:31.982Z,2.70
2018-06-12T03:48:00.273Z,1.77
2018-06-12T03:50:29.557Z,2.17
2018-06-12T03:52:57.877Z,2.63
2018-06-12T03:55:28.170Z,2.40
2018-06-12T03:58:00.585Z,1.63
2018-06-12T04:00:29.976Z,2.13
2018-06-12T04:02:58.262Z,3.50
2018-06-12T04:05:26.581Z,2.27
2018-06-12T04:07:54.913Z,2.33
2018-06-12T04:10:23.185Z,2.10
2018-06-12T04:12:55.393Z,2.00
2018-06-12T04:15:23.680Z,2.10
2018-06-12T04:17:52.005Z,2.60
2018-06-12T04:20:21.293Z,1.60
2018-06-12T04:22:49.565Z,2.27
2018-06-12T04:25:17.915Z,2.47
2018-06-12T04:27:46.201Z,2.87
2018-06-12T04:30:15.593Z,2.80
2018-06-12T04:32:43.857Z,2.13
2018-06-12T04:35:12.169Z,1.63
2018-06-12T04:37:40.441Z,2.37
2018-06-12T04:40:08.753Z,2.00
2018-06-12T04:42:38.121Z,2.07
2018-06-12T04:45:06.429Z,2.30
2018-06-12T04:47:34.718Z,2.00
2018-06-12T04:50:04.149Z,1.90
2018-06-12T04:52:32.439Z,2.90
2018-06-12T04:55:00.909Z,1.90
2018-06-12T04:57:29.178Z,2.33
2018-06-12T04:59:58.639Z,2.40
2018-06-12T05:02:26.929Z,1.97
2018-06-12T05:04:55.201Z,2.20
2018-06-12T05:07:23.506Z,2.30
2018-06-12T05:09:51.889Z,2.60
2018-06-12T05:12:20.196Z,1.80
2018-06-12T05:14:49.467Z,2.10
2018-06-12T05:17:17.766Z,1.93
2018-06-12T05:19:46.037Z,2.23
2018-06-12T05:22:15.329Z,1.87
2018-06-12T05:24:43.641Z,2.40
2018-06-12T05:27:11.950Z,2.33
2018-06-12T05:29:40.217Z,2.73
2018-06-12T05:32:08.526Z,2.20
2018-06-12T05:34:37.801Z,1.97
2018-06-12T05:37:06.118Z,1.73
2018-06-12T05:39:34.397Z,1.90
2018-06-12T05:42:02.703Z,1.53
2018-06-12T05:44:30.986Z,2.00
2018-06-12T05:46:59.289Z,1.80
2018-06-12T05:49:28.644Z,1.97
2018-06-12T05:51:56.982Z,1.63
2018-06-12T05:54:25.245Z,1.80
2018-06-12T05:56:53.524Z,2.40
2018-06-12T05:59:21.820Z,2.20
2018-06-12T06:01:52.353Z,2.00
2018-06-12T06:04:21.689Z,1.93
2018-06-12T06:06:50.073Z,1.97
2018-06-12T06:09:18.477Z,1.33
2018-06-12T06:11:46.802Z,1.47
2018-06-12T06:14:15.121Z,1.90
2018-06-12T06:16:43.475Z,1.60
2018-06-12T06:19:11.941Z,2.20
2018-06-12T06:21:40.328Z,2.00
2018-06-12T06:24:09.668Z,1.80
2018-06-12T06:26:41.073Z,1.50
2018-06-12T06:29:12.965Z,1.87
2018-06-12T06:31:41.333Z,1.77
2018-06-12T06:52:28.997Z,1.53
2018-06-12T06:54:59.699Z,1.40
2018-06-12T06:57:33.459Z,1.83
2018-06-12T07:00:04.686Z,2.37
2018-06-12T07:02:39.126Z,1.87
2018-06-12T07:05:07.731Z,1.70
2018-06-12T07:07:36.029Z,2.07
2018-06-12T07:10:05.325Z,6.07
2018-06-12T07:12:33.736Z,9.37
2018-06-12T07:18:10.965Z,2.60
2018-06-12T07:21:20.609Z,1.60
2018-06-12T07:23:48.911Z,1.97
2018-06-12T07:26:17.313Z,1.70
2018-06-12T07:28:45.590Z,2.20
2018-06-12T07:31:13.860Z,1.73
2018-06-12T07:33:42.269Z,1.47
2018-06-12T07:36:10.529Z,1.67
2018-06-12T07:38:38.826Z,1.63
2018-06-12T07:41:07.085Z,1.53
2018-06-12T07:43:35.483Z,1.67
2018-06-12T07:46:04.937Z,1.60
2018-06-12T07:48:33.253Z,1.67
2018-06-12T07:51:01.599Z,1.80
2018-06-12T07:53:29.885Z,1.43
2018-06-12T07:55:58.246Z,2.17
2018-06-12T07:58:26.548Z,2.10
2018-06-12T08:00:54.929Z,3.47
2018-06-12T08:03:23.312Z,2.40
2018-06-12T08:05:51.703Z,2.10
2018-06-12T08:08:22.099Z,4.77
2018-06-12T08:10:50.493Z,2.20
2018-06-12T08:13:18.842Z,2.50
2018-06-12T08:15:47.116Z,2.93
2018-06-12T08:18:15.364Z,2.10
2018-06-12T08:20:44.725Z,1.80
2018-06-12T08:23:12.973Z,1.87
2018-06-12T08:25:41.284Z,1.30
2018-06-12T08:32:59.508Z,2.10
2018-06-12T08:35:27.798Z,1.90
2018-06-12T08:37:56.070Z,2.10
2018-06-12T08:40:24.389Z,1.77
2018-06-12T08:42:52.637Z,1.53
2018-06-12T08:45:20.890Z,1.80
2018-06-12T08:47:49.165Z,2.10
2018-06-12T08:50:17.417Z,2.00
2018-06-12T08:52:45.749Z,1.70
2018-06-12T08:55:15.067Z,1.50
2018-06-12T08:57:43.347Z,1.80
2018-06-12T09:00:11.685Z,1.63
2018-06-12T09:02:40.029Z,1.63
2018-06-12T09:05:08.277Z,1.47
2018-06-12T09:07:36.621Z,2.03
2018-06-12T09:10:04.992Z,1.50
2018-06-12T09:12:33.277Z,2.00
2018-06-12T09:15:01.543Z,1.27
2018-06-12T09:17:30.865Z,1.23
2018-06-12T09:19:59.216Z,1.33
2018-06-12T09:22:27.500Z,1.53
2018-06-12T09:24:55.821Z,1.53
2018-06-12T09:27:24.153Z,1.80
2018-06-12T09:29:53.442Z,1.80
2018-06-12T09:32:21.693Z,1.30
2018-06-12T09:34:51.149Z,1.70
2018-06-12T09:37:19.430Z,1.47
2018-06-12T09:39:47.745Z,1.30
2018-06-12T09:42:16.042Z,1.57
2018-06-12T09:44:44.458Z,1.23
2018-06-12T09:47:12.717Z,1.73
2018-06-12T09:49:41.030Z,0.97
2018-06-12T09:52:09.298Z,1.70
2018-06-12T09:54:37.598Z,1.37
2018-06-12T09:57:06.057Z,1.40
2018-06-12T09:59:34.379Z,1.40
2018-06-12T10:02:02.665Z,1.07
2018-06-12T10:04:31.997Z,1.30
2018-06-12T10:07:00.289Z,1.50
2018-06-12T10:09:28.598Z,1.47
2018-06-12T10:11:56.888Z,1.30
2018-06-12T10:14:25.197Z,1.47
2018-06-12T10:16:53.457Z,1.50
2018-06-12T10:19:21.753Z,1.40
2018-06-12T10:21:50.093Z,1.60
2018-06-12T10:24:19.445Z,2.53
2018-06-12T10:26:48.824Z,1.60
2018-06-12T10:29:17.246Z,1.43
2018-06-12T10:31:46.640Z,1.27
2018-06-12T10:34:14.904Z,1.10
2018-06-12T10:36:43.193Z,1.60
2018-06-12T10:39:11.496Z,1.57
2018-06-12T10:41:39.823Z,1.47
2018-06-12T10:44:09.102Z,1.63
2018-06-12T10:46:37.510Z,1.60
2018-06-12T10:49:06.048Z,1.50
2018-06-12T10:51:34.362Z,2.23
2018-06-12T10:54:02.736Z,1.50
2018-06-12T10:56:31.089Z,1.57
2018-06-12T10:58:59.317Z,2.13
2018-06-12T11:01:27.624Z,1.67
2018-06-12T11:03:55.884Z,1.63
2018-06-12T11:06:24.617Z,1.30
2018-06-12T11:08:52.905Z,1.10
2018-06-12T11:11:21.217Z,1.50
2018-06-12T11:13:49.657Z,0.93
2018-06-12T11:16:18.020Z,1.50
2018-06-12T11:18:46.301Z,1.53
2018-06-12T11:21:15.549Z,2.10
2018-06-12T11:23:43.841Z,2.20
2018-06-12T11:26:12.258Z,1.50
2018-06-12T11:28:40.574Z,1.47
2018-06-12T11:31:08.901Z,2.00
2018-06-12T11:33:37.246Z,2.07
2018-06-12T11:36:05.517Z,2.03
2018-06-12T11:38:33.821Z,2.33
2018-06-12T11:41:02.109Z,2.43
2018-06-12T11:43:30.406Z,4.97
2018-06-12T11:45:58.686Z,3.60
2018-06-12T11:48:26.981Z,3.30
2018-06-12T11:50:56.438Z,3.80
2018-06-12T11:53:24.713Z,2.30
2018-06-12T11:55:52.997Z,2.30
2018-06-12T11:58:21.317Z,8.73
2018-06-12T12:00:49.609Z,3.30
2018-06-12T12:03:17.890Z,1.93
2018-06-12T12:05:46.197Z,2.50
2018-06-12T12:08:14.465Z,2.30
2018-06-12T12:10:42.811Z,1.77
2018-06-12T12:13:11.138Z,2.10
2018-06-12T12:15:40.460Z,1.80
2018-06-12T12:18:09.941Z,2.00
2018-06-12T12:20:38.253Z,1.70
2018-06-12T12:23:06.522Z,1.50
2018-06-12T12:25:35.913Z,1.80
2018-06-12T12:28:04.253Z,1.80
2018-06-12T12:30:32.541Z,1.57
2018-06-12T12:33:00.813Z,1.63
2018-06-12T12:35:29.129Z,1.70
2018-06-12T12:37:57.557Z,2.00
2018-06-12T12:40:25.909Z,1.93
2018-06-12T12:42:54.231Z,2.80
2018-06-12T12:45:22.510Z,2.70
2018-06-12T12:47:50.821Z,2.33
2018-06-12T12:50:19.155Z,1.93
2018-06-12T12:52:47.469Z,2.10
2018-06-12T12:55:15.837Z,1.57
2018-06-12T12:57:44.221Z,1.67
2018-06-12T13:00:12.582Z,1.63
2018-06-12T13:02:41.985Z,1.73
2018-06-12T13:05:10.361Z,1.87
2018-06-12T13:07:38.777Z,1.40
2018-06-12T13:10:07.122Z,1.63
2018-06-12T13:12:35.409Z,1.67
2018-06-12T13:15:03.789Z,1.77
2018-06-12T13:17:32.207Z,1.87
2018-06-12T13:20:00.622Z,1.43
2018-06-12T13:22:28.917Z,1.63
2018-06-12T13:24:57.308Z,1.90
2018-06-12T13:27:25.689Z,1.90
2018-06-12T13:29:54.045Z,1.70
2018-06-12T13:32:22.324Z,1.80
2018-06-12T13:34:50.650Z,2.03
2018-06-12T13:37:19.990Z,1.70
2018-06-12T13:39:48.394Z,1.77
2018-06-12T13:42:16.833Z,2.00
2018-06-12T13:44:49.591Z,1.83
2018-06-12T13:47:17.921Z,2.33
2018-06-12T13:49:47.252Z,2.33
2018-06-12T13:52:15.584Z,1.53
2018-06-12T13:54:45.989Z,2.30
2018-06-12T13:57:14.321Z,2.43
2018-06-12T13:59:42.687Z,2.40
2018-06-12T14:02:11.981Z,2.00
2018-06-12T14:04:40.325Z,1.70
2018-06-12T14:07:08.715Z,1.70
2018-06-12T14:09:37.023Z,1.83
2018-06-12T14:12:05.381Z,1.40
2018-06-12T14:14:35.097Z,1.77
2018-06-12T14:17:03.466Z,2.37
2018-06-12T14:19:31.858Z,2.10
2018-06-12T14:22:00.305Z,2.43
2018-06-12T14:24:28.609Z,2.03
2018-06-12T14:26:57.962Z,2.20
2018-06-12T14:29:26.218Z,1.90
2018-06-12T14:31:54.595Z,1.90
2018-06-12T14:34:22.954Z,2.33
2018-06-12T14:36:51.369Z,2.60
2018-06-12T14:39:19.706Z,2.73
2018-06-12T14:41:49.047Z,2.40
2018-06-12T14:44:17.413Z,2.40
2018-06-12T14:46:46.814Z,2.23
2018-06-12T14:49:15.102Z,2.20
2018-06-12T14:51:43.462Z,3.17
2018-06-12T14:54:11.817Z,1.87
2018-06-12T14:56:40.217Z,2.30
2018-06-12T14:59:08.591Z,2.50
2018-06-12T15:01:36.880Z,1.77
2018-06-12T15:04:05.301Z,1.80
2018-06-12T15:06:33.628Z,2.20
2018-06-12T15:09:01.984Z,2.23
2018-06-12T15:11:31.345Z,2.10
2018-06-12T15:13:59.648Z,2.27
2018-06-12T15:16:27.933Z,2.97
2018-06-12T15:18:57.323Z,1.80
2018-06-12T15:21:25.538Z,2.03
2018-06-12T15:23:53.820Z,2.00
2018-06-12T15:26:23.162Z,2.70
2018-06-12T15:28:51.457Z,1.80
2018-06-12T15:31:19.711Z,2.00
2018-06-12T15:33:48.049Z,2.37
2018-06-12T15:36:16.386Z,2.80
2018-06-12T15:43:34.559Z,2.90
2018-06-12T15:46:02.820Z,2.20
2018-06-12T15:48:31.138Z,3.77
2018-06-12T15:50:59.509Z,2.03
2018-06-12T15:53:37.773Z,2.67
2018-06-12T15:56:06.147Z,2.47
2018-06-12T15:58:34.364Z,2.17
2018-06-12T16:01:02.656Z,2.13
2018-06-12T16:03:32.990Z,2.10
2018-06-12T16:06:01.295Z,2.87
2018-06-12T16:08:29.576Z,2.30
2018-06-12T16:10:57.858Z,2.43
2018-06-12T16:13:26.146Z,2.57
2018-06-12T16:15:54.426Z,2.90
2018-06-12T16:18:22.691Z,2.57
2018-06-12T16:20:52.061Z,2.80
2018-06-12T16:23:20.309Z,2.67
2018-06-12T16:25:48.625Z,3.20
2018-06-12T16:28:17.957Z,2.83
2018-06-12T16:30:47.381Z,2.20
2018-06-12T16:33:15.856Z,2.77
2018-06-12T16:35:44.141Z,1.53
2018-06-12T16:38:12.406Z,2.07
2018-06-12T16:40:40.677Z,2.80
2018-06-12T16:43:08.951Z,2.50
2018-06-12T16:45:37.234Z,2.00
2018-06-12T16:48:05.940Z,2.30
2018-06-12T16:50:34.210Z,2.00
2018-06-12T16:53:03.527Z,2.70
2018-06-12T16:55:31.774Z,2.40
2018-06-12T16:58:00.077Z,2.40
2018-06-12T17:00:28.410Z,2.40
2018-06-12T17:02:56.705Z,2.20
2018-06-12T17:05:24.981Z,2.70
2018-06-12T17:07:54.385Z,3.70
2018-06-12T17:10:22.666Z,1.87
2018-06-12T17:12:51.001Z,2.40
2018-06-12T17:15:19.360Z,2.87
2018-06-12T17:17:48.717Z,2.60
2018-06-12T17:20:16.996Z,2.47
2018-06-12T17:22:45.251Z,2.70
2018-06-12T17:25:13.565Z,2.00
2018-06-12T17:27:43.889Z,2.73
2018-06-12T17:30:12.265Z,3.43
2018-06-12T17:32:40.541Z,2.87
2018-06-12T17:35:08.841Z,3.17
2018-06-12T17:37:37.133Z,2.77
2018-06-12T17:40:05.467Z,2.10
2018-06-12T17:42:33.749Z,2.70
2018-06-12T17:45:02.058Z,2.90
2018-06-12T17:47:30.337Z,2.60
2018-06-12T17:49:58.632Z,2.03
2018-06-12T17:52:26.905Z,2.37
2018-06-12T17:54:55.220Z,2.80
2018-06-12T17:57:23.481Z,2.77
2018-06-12T17:59:51.786Z,2.40
2018-06-12T18:02:20.134Z,3.30
2018-06-12T18:04:48.425Z,3.30
2018-06-12T18:07:16.822Z,2.90
2018-06-12T18:09:45.164Z,3.10
2018-06-12T18:12:13.467Z,2.83
2018-06-12T18:14:41.827Z,2.13
2018-06-12T18:17:10.241Z,2.60
2018-06-12T18:19:38.589Z,3.00
2018-06-12T18:22:06.925Z,2.33
2018-06-12T18:24:35.236Z,2.90
2018-06-12T18:27:03.649Z,3.50
2018-06-12T18:29:33.013Z,2.63
2018-06-12T18:32:01.331Z,2.90
2018-06-12T18:34:29.601Z,2.77
2018-06-12T18:36:58.873Z,2.90
2018-06-12T18:39:27.153Z,3.07
2018-06-12T18:41:55.507Z,2.80
2018-06-12T18:44:25.879Z,3.43
2018-06-12T18:46:54.214Z,2.80
2018-06-12T18:49:22.496Z,3.17
2018-06-12T18:51:50.764Z,3.70
2018-06-12T18:54:19.062Z,3.37
2018-06-12T18:56:47.414Z,3.17
2018-06-12T18:59:15.809Z,3.60
2018-06-12T19:01:45.099Z,4.07
2018-06-12T19:04:15.451Z,3.70
2018-06-12T19:06:43.891Z,4.50
2018-06-12T19:09:12.124Z,5.23
2018-06-12T19:11:40.501Z,4.00
2018-06-12T19:14:08.863Z,3.40
2018-06-12T19:16:37.249Z,4.30
2018-06-12T19:19:05.961Z,4.50
2018-06-12T19:21:35.289Z,3.90
2018-06-12T19:24:03.549Z,4.07
2018-06-12T19:26:31.897Z,4.13
2018-06-12T19:29:00.117Z,3.77
2018-06-12T19:31:28.433Z,4.40
2018-06-12T19:33:56.690Z,3.70
2018-06-12T19:36:25.013Z,4.30
2018-06-12T19:38:53.329Z,4.40
2018-06-12T19:41:21.654Z,3.57
2018-06-12T19:43:49.990Z,4.40
2018-06-12T19:46:18.286Z,4.27
2018-06-12T19:48:46.579Z,4.43
2018-06-12T19:51:14.894Z,4.30
2018-06-12T19:53:43.222Z,4.43
2018-06-12T19:56:12.553Z,3.20
2018-06-12T19:58:40.807Z,3.00
2018-06-12T20:01:09.181Z,3.80
2018-06-12T20:03:37.595Z,3.47
2018-06-12T20:06:06.954Z,3.60
2018-06-12T20:08:35.349Z,4.20
2018-06-12T20:11:04.624Z,3.97
2018-06-12T20:13:33.053Z,4.27
2018-06-12T20:16:01.461Z,4.60
2018-06-12T20:18:29.781Z,4.40
2018-06-12T20:20:58.130Z,4.73
2018-06-12T20:23:26.421Z,5.43
2018-06-12T20:26:58.104Z,3.73
2018-06-12T20:29:26.490Z,4.33
2018-06-12T20:31:54.821Z,3.23
2018-06-12T20:34:23.109Z,3.80
2018-06-12T20:36:52.412Z,4.70
2018-06-12T20:39:20.744Z,3.90
2018-06-12T20:41:49.065Z,3.77
2018-06-12T20:44:17.376Z,4.00
2018-06-12T20:46:45.761Z,4.60
2018-06-12T20:49:14.008Z,3.70
2018-06-12T20:51:42.353Z,3.93
2018-06-12T20:54:10.787Z,4.20
2018-06-12T20:56:39.065Z,4.17
2018-06-12T20:59:09.537Z,4.10
2018-06-12T21:01:37.927Z,3.93
2018-06-12T21:04:06.498Z,3.40
2018-06-12T21:06:34.833Z,4.07
2018-06-12T21:09:03.579Z,5.23
2018-06-12T21:11:32.054Z,3.80
2018-06-12T21:14:00.481Z,4.00
2018-06-12T21:16:29.889Z,5.73
2018-06-12T21:18:58.220Z,4.10
2018-06-12T21:21:27.533Z,5.50
2018-06-12T21:23:55.880Z,4.47
2018-06-12T21:26:24.221Z,4.17
2018-06-12T21:28:52.543Z,4.40
2018-06-12T21:31:20.933Z,4.70
2018-06-12T21:33:49.381Z,4.97
2018-06-12T21:36:17.709Z,4.27
2018-06-12T21:38:46.139Z,5.07
2018-06-12T21:41:14.505Z,7.10
2018-06-12T21:43:42.862Z,4.83
2018-06-12T21:46:11.094Z,4.30
2018-06-12T21:48:39.431Z,5.70
2018-06-12T21:51:07.716Z,6.00
2018-06-12T21:53:36.049Z,4.60
2018-06-12T21:56:04.402Z,5.47
2018-06-12T21:58:32.777Z,4.83
2018-06-12T22:01:01.161Z,3.80
2018-06-12T22:03:29.497Z,4.90
2018-06-12T22:05:57.773Z,5.33
2018-06-12T22:08:26.073Z,4.80
2018-06-12T22:10:54.351Z,5.33
2018-06-12T22:13:22.634Z,5.50
2018-06-12T22:15:50.921Z,5.30
2018-06-12T22:18:19.234Z,4.63
2018-06-12T22:20:47.497Z,4.27
2018-06-12T22:23:15.758Z,5.30
2018-06-12T22:25:44.041Z,5.33
2018-06-12T22:28:12.338Z,5.80
2018-06-12T22:30:40.634Z,5.43
2018-06-12T22:33:09.084Z,4.90
2018-06-12T22:35:37.365Z,5.17
2018-06-12T22:38:05.640Z,4.77
2018-06-12T22:40:33.941Z,5.40
2018-06-12T22:43:02.222Z,5.03
2018-06-12T22:45:30.520Z,5.00
2018-06-12T22:48:05.261Z,5.00
2018-06-12T22:50:33.618Z,6.37
2018-06-12T22:53:01.885Z,5.57
2018-06-12T22:55:30.306Z,7.23
2018-06-12T22:57:59.165Z,5.97
2018-06-12T23:00:27.465Z,5.50
2018-06-12T23:02:55.737Z,6.30
2018-06-12T23:05:24.056Z,5.50
2018-06-12T23:07:54.221Z,6.33
2018-06-12T23:10:26.504Z,5.87
2018-06-12T23:12:54.778Z,6.57
2018-06-12T23:15:23.115Z,6.30
2018-06-12T23:17:51.425Z,5.63
2018-06-12T23:20:31.029Z,6.83
2018-06-12T23:22:59.390Z,6.20
2018-06-12T23:25:28.781Z,5.97
2018-06-12T23:27:57.151Z,8.63
2018-06-12T23:30:26.447Z,6.60
2018-06-12T23:32:54.807Z,6.30
2018-06-12T23:35:23.099Z,5.77
2018-06-12T23:37:51.425Z,5.57
2018-06-12T23:40:20.084Z,6.37
2018-06-12T23:42:48.396Z,7.20
2018-06-12T23:45:17.773Z,7.77
2018-06-12T23:47:46.105Z,6.47
2018-06-12T23:50:15.406Z,6.27
2018-06-12T23:52:43.781Z,6.77
2018-06-12T23:55:13.146Z,6.23
2018-06-12T23:57:41.519Z,6.53
